Impacts TAF Board
For situational awareness. Not to be used for flight planning purposes.
IDs:

KMSP - Minneapolis-St Paul, MN, US

Issued at 0259 UTC 23 Oct 2018
Updated at 0319 UTC 23 Oct 2018
Potential Impact None Slight Moderate High
Time<<24/04Z 24/05Z 24/06Z 24/07Z 24/08Z 24/09Z 24/10Z 24/11Z 24/12Z 24/13Z 24/14Z 24/15Z 24/16Z
Type PRVL PRVL
VIS >6 >6
CIG -- --
Cover SKC SKC
FltCat VFR VFR
WX -- --
WDir 30 30
WSpd 4 4
WGst -- --
Raw TAF
KMSP 230259Z 2303/2406 33009KT P6SM SKC
  FM240300 03004KT P6SM SKC


METAR Board
Radar Display
Forecast Discussion
For situational awareness. Not to be used for flight planning purposes.